Time;durP1;ratioP1;P1;durP2;ratioP2;P2;SDS_P1;SDS_P2;PMS_P1;PMS_P2;Temp;Humidity;BMP_temperature;BMP_pressure;BME280_temperature;BME280_humidity;BME280_pressure;Samples;Min_cycle;Max_cycle;Signal;HPM_P1;HPM_P2
2021/09/27 00:00:38;;;;;;;28.60;19.93;;;;;;;;;;769682;180;921560;-67
2021/09/27 00:03:04;;;;;;;31.20;21.77;;;;;;;;;;765927;180;919730;-67
2021/09/27 00:05:30;;;;;;;26.37;20.77;;;;;;;;;;771634;180;920603;-67
2021/09/27 00:07:55;;;;;;;24.17;19.27;;;;;;;;;;767995;180;919932;-66
2021/09/27 00:10:26;;;;;;;28.43;19.93;;;;;;;;;;769658;180;919042;-66
2021/09/27 00:12:52;;;;;;;24.10;19.60;;;;;;;;;;773288;180;1024598;-67
2021/09/27 00:15:18;;;;;;;25.07;18.87;;;;;;;;;;758011;183;918908;-67
2021/09/27 00:17:44;;;;;;;29.00;20.47;;;;;;;;;;755987;182;919186;-67
2021/09/27 00:20:10;;;;;;;23.37;17.77;;;;;;;;;;757101;183;919065;-67
2021/09/27 00:22:35;;;;;;;25.87;19.33;;;;;;;;;;766357;183;911054;-67
2021/09/27 00:25:01;;;;;;;38.17;21.80;;;;;;;;;;760481;180;916798;-67
2021/09/27 00:27:27;;;;;;;28.67;20.50;;;;;;;;;;766104;180;912214;-67
2021/09/27 00:29:53;;;;;;;25.57;19.77;;;;;;;;;;776185;180;916529;-67
2021/09/27 00:32:19;;;;;;;27.52;20.25;;;;;;;;;;772923;180;919492;-67
2021/09/27 00:34:45;;;;;;;30.60;21.20;;;;;;;;;;769058;180;918964;-68
2021/09/27 00:37:10;;;;;;;30.58;20.62;;;;;;;;;;772108;180;918642;-67
2021/09/27 00:39:37;;;;;;;31.13;19.30;;;;;;;;;;762403;183;922875;-67
2021/09/27 00:42:02;;;;;;;26.00;21.37;;;;;;;;;;747365;186;918695;-67
2021/09/27 00:44:28;;;;;;;25.00;19.70;;;;;;;;;;748485;184;918837;-66
2021/09/27 00:46:54;;;;;;;41.77;21.20;;;;;;;;;;755277;184;919467;-67
2021/09/27 00:49:20;;;;;;;23.40;18.37;;;;;;;;;;747347;186;919632;-67
2021/09/27 00:51:46;;;;;;;28.60;20.93;;;;;;;;;;746533;184;919267;-67
2021/09/27 00:54:12;;;;;;;31.23;21.23;;;;;;;;;;752561;187;919979;-67
2021/09/27 00:56:40;;;;;;;30.10;23.03;;;;;;;;;;769525;180;920093;-67
2021/09/27 00:59:06;;;;;;;29.92;19.62;;;;;;;;;;767241;180;919018;-68
2021/09/27 01:01:31;;;;;;;28.90;20.07;;;;;;;;;;772220;180;918934;-67
2021/09/27 01:03:57;;;;;;;27.27;19.07;;;;;;;;;;754577;183;918828;-67
2021/09/27 01:06:23;;;;;;;41.37;21.20;;;;;;;;;;757293;182;928490;-66
2021/09/27 01:08:53;;;;;;;22.70;19.07;;;;;;;;;;746229;183;873227;-67
2021/09/27 01:11:20;;;;;;;34.57;20.70;;;;;;;;;;750281;186;903854;-66
2021/09/27 01:13:50;;;;;;;28.70;20.53;;;;;;;;;;760731;181;918773;-67
2021/09/27 01:16:16;;;;;;;34.60;21.47;;;;;;;;;;745736;186;919272;-66
2021/09/27 01:18:45;;;;;;;33.85;22.15;;;;;;;;;;767021;180;1021187;-65
2021/09/27 01:21:17;;;;;;;30.87;21.00;;;;;;;;;;743092;187;918245;-66
2021/09/27 01:23:49;;;;;;;32.53;22.20;;;;;;;;;;763036;180;1124257;-66
2021/09/27 01:26:20;;;;;;;25.80;20.43;;;;;;;;;;759138;183;919512;-67
2021/09/27 01:28:52;;;;;;;30.30;22.07;;;;;;;;;;766590;180;918698;-67
2021/09/27 01:31:20;;;;;;;30.07;21.50;;;;;;;;;;771207;180;918974;-66
2021/09/27 01:33:48;;;;;;;33.63;21.63;;;;;;;;;;754435;183;919619;-68
2021/09/27 01:36:14;;;;;;;32.85;23.87;;;;;;;;;;756062;183;919303;-66
2021/09/27 01:38:42;;;;;;;27.90;19.97;;;;;;;;;;742324;187;918751;-66
2021/09/27 01:41:08;;;;;;;29.00;21.37;;;;;;;;;;752622;185;924757;-67
2021/09/27 01:43:39;;;;;;;34.17;21.40;;;;;;;;;;756721;183;919431;-66
2021/09/27 01:46:20;;;;;;;31.00;23.07;;;;;;;;;;766098;180;919264;-66
2021/09/27 01:48:52;;;;;;;27.70;22.03;;;;;;;;;;755346;182;920329;-66
2021/09/27 01:51:23;;;;;;;27.90;21.30;;;;;;;;;;750706;183;920503;-67
2021/09/27 01:53:49;;;;;;;30.17;20.90;;;;;;;;;;774509;180;919175;-65
2021/09/27 01:56:25;;;;;;;33.88;20.95;;;;;;;;;;768418;181;922252;-66
2021/09/27 01:58:52;;;;;;;26.80;20.23;;;;;;;;;;758843;183;921173;-66
2021/09/27 02:01:21;;;;;;;32.78;21.10;;;;;;;;;;765609;180;1021298;-66
2021/09/27 02:03:48;;;;;;;28.03;22.57;;;;;;;;;;760735;180;923256;-65
2021/09/27 02:06:14;;;;;;;32.27;21.43;;;;;;;;;;756922;183;1017638;-66
2021/09/27 02:08:40;;;;;;;31.03;21.30;;;;;;;;;;743120;187;919095;-66
2021/09/27 02:11:06;;;;;;;26.40;20.73;;;;;;;;;;746567;185;918030;-67
2021/09/27 02:13:36;;;;;;;30.60;21.77;;;;;;;;;;761199;183;919745;-66
2021/09/27 02:16:02;;;;;;;33.03;21.23;;;;;;;;;;764260;180;914817;-66
2021/09/27 02:18:29;;;;;;;30.97;21.40;;;;;;;;;;759953;183;915568;-66
2021/09/27 02:20:55;;;;;;;29.87;20.85;;;;;;;;;;756821;184;916721;-65
2021/09/27 02:23:33;;;;;;;28.43;20.93;;;;;;;;;;745406;187;915872;-66
2021/09/27 02:25:59;;;;;;;33.73;22.53;;;;;;;;;;741739;187;919901;-69
2021/09/27 02:28:25;;;;;;;26.30;20.03;;;;;;;;;;761162;183;918965;-66
2021/09/27 02:30:52;;;;;;;26.97;20.70;;;;;;;;;;765145;180;919469;-65
2021/09/27 02:33:19;;;;;;;28.67;21.10;;;;;;;;;;767003;180;918325;-66
2021/09/27 02:35:57;;;;;;;25.90;19.20;;;;;;;;;;761863;180;918543;-66
2021/09/27 02:38:23;;;;;;;27.97;21.97;;;;;;;;;;770163;181;919316;-66
2021/09/27 02:40:48;;;;;;;29.43;20.60;;;;;;;;;;769908;180;919723;-66
2021/09/27 02:43:14;;;;;;;27.83;21.60;;;;;;;;;;761718;184;918731;-66
2021/09/27 02:45:41;;;;;;;31.20;18.90;;;;;;;;;;759413;183;920107;-66
2021/09/27 02:48:18;;;;;;;29.80;21.70;;;;;;;;;;756496;182;920384;-66
2021/09/27 02:50:42;;;;;;;27.00;20.50;;;;;;;;;;763265;180;920376;-66
2021/09/27 02:53:07;;;;;;;25.23;20.67;;;;;;;;;;773784;179;918338;-65
2021/09/27 02:55:44;;;;;;;31.00;22.90;;;;;;;;;;768269;180;917149;-66
2021/09/27 02:58:15;;;;;;;30.97;20.83;;;;;;;;;;767733;180;921082;-66
2021/09/27 03:00:57;;;;;;;29.70;21.40;;;;;;;;;;768024;180;925692;-65
2021/09/27 03:03:32;;;;;;;32.07;22.30;;;;;;;;;;766138;180;920471;-64
2021/09/27 03:06:01;;;;;;;32.80;21.00;;;;;;;;;;769478;180;919757;-65
2021/09/27 03:08:27;;;;;;;31.47;21.40;;;;;;;;;;766489;180;919362;-66
2021/09/27 03:11:00;;;;;;;27.70;23.50;;;;;;;;;;748514;183;1117246;-65
2021/09/27 03:13:34;;;;;;;35.10;22.70;;;;;;;;;;757213;183;919018;-65
2021/09/27 03:16:01;;;;;;;51.80;25.20;;;;;;;;;;748016;185;919125;-65
2021/09/27 03:18:33;;;;;;;47.53;26.80;;;;;;;;;;766158;183;919372;-67
2021/09/27 03:21:02;;;;;;;58.93;28.87;;;;;;;;;;759055;183;917924;-65
2021/09/27 03:23:34;;;;;;;71.93;33.75;;;;;;;;;;764936;180;918563;-66
2021/09/27 03:26:01;;;;;;;72.60;30.20;;;;;;;;;;745924;183;919719;-66
2021/09/27 03:28:45;;;;;;;80.90;34.53;;;;;;;;;;763775;183;919781;-66
2021/09/27 03:31:13;;;;;;;76.00;32.90;;;;;;;;;;750830;183;919062;-65
2021/09/27 03:33:40;;;;;;;115.60;39.00;;;;;;;;;;761350;183;921054;-65
2021/09/27 03:36:16;;;;;;;105.17;37.80;;;;;;;;;;756621;183;1024971;-66
2021/09/27 03:38:43;;;;;;;87.30;35.87;;;;;;;;;;764262;180;917110;-66
2021/09/27 03:41:09;;;;;;;96.78;35.58;;;;;;;;;;764688;180;916946;-65
2021/09/27 03:43:42;;;;;;;115.93;38.80;;;;;;;;;;765129;181;919382;-65
2021/09/27 03:46:11;;;;;;;98.10;38.60;;;;;;;;;;764228;180;915830;-66
2021/09/27 03:48:39;;;;;;;100.17;37.23;;;;;;;;;;759781;183;916446;-65
2021/09/27 03:51:06;;;;;;;105.40;41.50;;;;;;;;;;746816;187;919209;-65
2021/09/27 03:53:32;;;;;;;108.17;39.77;;;;;;;;;;759826;180;922344;-66
2021/09/27 03:55:58;;;;;;;103.57;41.60;;;;;;;;;;747999;184;915479;-67
2021/09/27 03:58:24;;;;;;;125.73;41.30;;;;;;;;;;741617;183;916897;-66
2021/09/27 04:00:56;;;;;;;131.93;42.53;;;;;;;;;;763218;183;915784;-66
2021/09/27 04:03:28;;;;;;;113.10;41.57;;;;;;;;;;767595;180;915805;-66
2021/09/27 04:05:54;;;;;;;120.13;45.10;;;;;;;;;;773289;178;616301;-65
2021/09/27 04:08:20;;;;;;;135.43;44.60;;;;;;;;;;756083;183;942499;-66
2021/09/27 04:11:03;;;;;;;119.63;44.30;;;;;;;;;;767076;180;618699;-66
2021/09/27 04:13:45;;;;;;;125.70;42.40;;;;;;;;;;771974;180;618467;-65
2021/09/27 04:16:28;;;;;;;138.70;43.80;;;;;;;;;;766489;180;747395;-65
2021/09/27 04:18:56;;;;;;;143.87;44.70;;;;;;;;;;772316;180;919136;-65
2021/09/27 04:21:27;;;;;;;147.67;44.93;;;;;;;;;;771857;180;919373;-66
2021/09/27 04:24:07;;;;;;;125.43;44.30;;;;;;;;;;767680;181;918688;-66
2021/09/27 04:26:39;;;;;;;123.77;44.13;;;;;;;;;;756639;183;919382;-65
2021/09/27 04:29:06;;;;;;;135.03;45.00;;;;;;;;;;753801;185;919249;-67
2021/09/27 04:31:33;;;;;;;119.93;41.87;;;;;;;;;;746987;187;626656;-68
2021/09/27 04:33:59;;;;;;;143.90;44.77;;;;;;;;;;754308;183;622240;-66
2021/09/27 04:36:25;;;;;;;115.17;41.53;;;;;;;;;;763788;183;631639;-66
2021/09/27 04:38:51;;;;;;;127.20;44.40;;;;;;;;;;752211;187;627058;-66
2021/09/27 04:41:32;;;;;;;134.40;44.50;;;;;;;;;;742724;187;918477;-67
2021/09/27 04:43:57;;;;;;;128.53;44.87;;;;;;;;;;773987;180;919125;-65
2021/09/27 04:46:25;;;;;;;134.37;44.07;;;;;;;;;;767686;181;919336;-65
2021/09/27 04:49:11;;;;;;;131.73;41.90;;;;;;;;;;763811;180;918928;-65
2021/09/27 04:51:38;;;;;;;93.68;42.08;;;;;;;;;;755089;183;1021848;-65
2021/09/27 04:54:10;;;;;;;150.97;44.43;;;;;;;;;;762729;183;917775;-66
2021/09/27 04:56:51;;;;;;;170.03;47.70;;;;;;;;;;746569;186;918674;-66
2021/09/27 04:59:32;;;;;;;168.80;45.77;;;;;;;;;;770400;181;918859;-67
2021/09/27 05:02:14;;;;;;;155.83;46.90;;;;;;;;;;748811;183;918302;-64
2021/09/27 05:04:40;;;;;;;247.87;44.50;;;;;;;;;;727770;191;921428;-65
2021/09/27 05:07:09;;;;;;;177.60;45.17;;;;;;;;;;753741;183;918680;-65
2021/09/27 05:09:39;;;;;;;264.17;49.63;;;;;;;;;;757444;182;919991;-65
2021/09/27 05:12:09;;;;;;;203.70;46.20;;;;;;;;;;760246;183;918635;-67
2021/09/27 05:14:50;;;;;;;245.37;48.40;;;;;;;;;;749939;185;920724;-66
2021/09/27 05:17:18;;;;;;;177.93;41.50;;;;;;;;;;772357;180;918004;-66
2021/09/27 05:19:49;;;;;;;242.87;44.63;;;;;;;;;;766056;180;915376;-65
2021/09/27 05:22:15;;;;;;;184.67;44.60;;;;;;;;;;755416;183;932745;-65
2021/09/27 05:24:48;;;;;;;187.27;46.93;;;;;;;;;;756363;183;915334;-65
2021/09/27 05:27:20;;;;;;;171.13;46.17;;;;;;;;;;756377;180;1120204;-66
2021/09/27 05:29:52;;;;;;;231.53;44.03;;;;;;;;;;744455;186;919653;-65
2021/09/27 05:32:19;;;;;;;211.67;45.80;;;;;;;;;;760912;180;928705;-65
2021/09/27 05:34:46;;;;;;;209.43;49.47;;;;;;;;;;754934;183;919101;-65
2021/09/27 05:37:18;;;;;;;183.20;45.30;;;;;;;;;;763070;184;918123;-65
2021/09/27 05:39:44;;;;;;;174.23;46.43;;;;;;;;;;761455;183;919413;-66
2021/09/27 05:42:09;;;;;;;178.63;45.37;;;;;;;;;;766842;180;919533;-66
2021/09/27 05:44:45;;;;;;;172.77;47.97;;;;;;;;;;776833;180;919204;-65
2021/09/27 05:47:11;;;;;;;154.53;45.87;;;;;;;;;;773286;180;918798;-65
2021/09/27 05:49:37;;;;;;;129.90;46.13;;;;;;;;;;741148;186;918854;-65
2021/09/27 05:52:05;;;;;;;108.35;45.83;;;;;;;;;;758508;180;919234;-65
2021/09/27 05:54:34;;;;;;;121.10;47.07;;;;;;;;;;761825;183;917935;-65
2021/09/27 05:57:02;;;;;;;98.23;46.20;;;;;;;;;;752646;184;918290;-65
2021/09/27 05:59:29;;;;;;;157.00;51.07;;;;;;;;;;748912;183;920076;-65
2021/09/27 06:02:01;;;;;;;155.57;51.40;;;;;;;;;;751944;183;918953;-65
2021/09/27 06:04:37;;;;;;;142.53;52.07;;;;;;;;;;760255;184;918867;-65
2021/09/27 06:07:03;;;;;;;194.03;55.40;;;;;;;;;;756537;184;918882;-66
2021/09/27 06:09:39;;;;;;;172.73;53.63;;;;;;;;;;752127;184;918294;-65
2021/09/27 06:12:06;;;;;;;179.23;54.47;;;;;;;;;;751990;184;922947;-66
2021/09/27 06:14:31;;;;;;;197.43;55.60;;;;;;;;;;751467;184;930600;-66
2021/09/27 06:16:57;;;;;;;175.80;60.30;;;;;;;;;;758046;184;918496;-65
2021/09/27 06:19:23;;;;;;;169.13;54.93;;;;;;;;;;754113;184;919466;-65
2021/09/27 06:21:51;;;;;;;158.40;56.63;;;;;;;;;;753011;183;924158;-66
2021/09/27 06:24:35;;;;;;;161.27;57.27;;;;;;;;;;756186;184;922545;-66
2021/09/27 06:27:03;;;;;;;177.03;55.83;;;;;;;;;;756314;183;918877;-67
2021/09/27 06:29:45;;;;;;;143.90;57.70;;;;;;;;;;745683;185;918761;-66
2021/09/27 06:32:14;;;;;;;156.63;55.73;;;;;;;;;;746549;186;917731;-66
2021/09/27 06:34:42;;;;;;;181.73;55.17;;;;;;;;;;753747;183;917078;-66
2021/09/27 06:37:08;;;;;;;174.07;58.77;;;;;;;;;;746116;186;811455;-67
2021/09/27 06:39:34;;;;;;;197.57;59.33;;;;;;;;;;770259;183;620515;-67
2021/09/27 06:42:01;;;;;;;172.53;57.03;;;;;;;;;;767351;180;651613;-66
2021/09/27 06:44:25;;;;;;;204.40;56.77;;;;;;;;;;769009;180;915379;-67
2021/09/27 06:46:51;;;;;;;187.27;57.37;;;;;;;;;;772239;180;627000;-66
2021/09/27 06:49:17;;;;;;;210.50;60.73;;;;;;;;;;766997;180;624436;-70
2021/09/27 06:51:44;;;;;;;240.37;57.03;;;;;;;;;;771293;180;624619;-67
2021/09/27 06:54:09;;;;;;;220.90;60.37;;;;;;;;;;768443;180;922183;-66
2021/09/27 06:56:35;;;;;;;210.47;59.97;;;;;;;;;;770808;180;914451;-67
2021/09/27 06:59:01;;;;;;;243.87;61.10;;;;;;;;;;759021;183;919338;-66
2021/09/27 07:01:26;;;;;;;212.82;58.00;;;;;;;;;;760611;180;918709;-66
2021/09/27 07:03:52;;;;;;;171.13;58.80;;;;;;;;;;758761;180;917151;-67
2021/09/27 07:06:18;;;;;;;196.40;61.77;;;;;;;;;;764623;180;918289;-67
2021/09/27 07:08:44;;;;;;;175.27;58.20;;;;;;;;;;766987;180;918042;-67
2021/09/27 07:11:10;;;;;;;196.18;58.50;;;;;;;;;;767099;180;928390;-68
2021/09/27 07:13:36;;;;;;;195.57;56.40;;;;;;;;;;754776;182;917657;-67
2021/09/27 07:16:02;;;;;;;181.53;58.50;;;;;;;;;;744987;184;918412;-67
2021/09/27 07:18:28;;;;;;;217.93;62.27;;;;;;;;;;752480;183;913987;-66
2021/09/27 07:20:58;;;;;;;178.43;58.80;;;;;;;;;;759785;184;914191;-67
2021/09/27 07:23:20;;;;;;;201.15;59.88;;;;;;;;;;753328;183;918832;-66
2021/09/27 07:25:46;;;;;;;184.57;63.07;;;;;;;;;;752024;183;1042440;-66
2021/09/27 07:28:12;;;;;;;187.20;60.37;;;;;;;;;;760341;184;918898;-67
2021/09/27 07:30:38;;;;;;;178.30;60.47;;;;;;;;;;759880;183;918900;-67
2021/09/27 07:33:04;;;;;;;207.13;62.87;;;;;;;;;;755111;184;924804;-67
2021/09/27 07:35:30;;;;;;;234.90;68.22;;;;;;;;;;760448;181;918705;-65
2021/09/27 07:37:56;;;;;;;161.57;56.07;;;;;;;;;;756150;183;863859;-67
2021/09/27 07:40:22;;;;;;;186.97;61.57;;;;;;;;;;756643;183;876278;-67
2021/09/27 07:42:48;;;;;;;187.23;62.28;;;;;;;;;;754158;184;919578;-66
2021/09/27 07:45:14;;;;;;;160.47;59.23;;;;;;;;;;757169;184;918670;-66
2021/09/27 07:47:40;;;;;;;159.43;61.23;;;;;;;;;;757133;183;920114;-66
2021/09/27 07:50:06;;;;;;;169.80;60.07;;;;;;;;;;756170;183;1003890;-67
2021/09/27 07:52:32;;;;;;;178.63;59.20;;;;;;;;;;758165;183;919451;-66
2021/09/27 07:54:58;;;;;;;190.43;64.47;;;;;;;;;;755755;184;919303;-67
2021/09/27 07:57:24;;;;;;;175.77;63.40;;;;;;;;;;755329;183;1023680;-67
2021/09/27 07:59:53;;;;;;;193.70;67.00;;;;;;;;;;756833;184;920309;-67
2021/09/27 08:02:18;;;;;;;173.10;62.50;;;;;;;;;;743874;184;920255;-68
2021/09/27 08:04:42;;;;;;;145.80;57.57;;;;;;;;;;762459;181;918686;-67
2021/09/27 08:07:08;;;;;;;153.50;61.00;;;;;;;;;;764511;180;918876;-67
2021/09/27 08:09:33;;;;;;;156.93;63.50;;;;;;;;;;768741;180;918589;-67
2021/09/27 08:11:59;;;;;;;145.30;59.80;;;;;;;;;;748727;186;918221;-67
2021/09/27 08:14:25;;;;;;;142.63;64.53;;;;;;;;;;741340;187;918394;-67
2021/09/27 08:16:51;;;;;;;150.17;63.20;;;;;;;;;;762843;183;918746;-67
2021/09/27 08:19:22;;;;;;;148.63;62.60;;;;;;;;;;759996;180;919220;-67
2021/09/27 08:21:43;;;;;;;165.20;61.20;;;;;;;;;;767727;180;938750;-67
2021/09/27 08:24:08;;;;;;;138.33;60.37;;;;;;;;;;775097;180;920573;-67
2021/09/27 08:26:34;;;;;;;104.90;54.05;;;;;;;;;;766881;180;917868;-68
2021/09/27 08:29:00;;;;;;;115.17;53.77;;;;;;;;;;768145;180;916054;-67
2021/09/27 08:31:26;;;;;;;114.73;51.70;;;;;;;;;;759398;180;919476;-67
2021/09/27 08:33:52;;;;;;;105.50;54.87;;;;;;;;;;772903;180;918913;-67
2021/09/27 08:36:18;;;;;;;101.13;54.00;;;;;;;;;;765239;180;920187;-69
2021/09/27 08:38:44;;;;;;;90.25;49.85;;;;;;;;;;763847;180;626619;-68
2021/09/27 08:41:20;;;;;;;90.97;49.40;;;;;;;;;;765587;180;636830;-68
2021/09/27 08:43:46;;;;;;;84.87;46.73;;;;;;;;;;766786;180;919696;-67
2021/09/27 08:46:16;;;;;;;82.90;48.00;;;;;;;;;;766323;180;919136;-69
2021/09/27 08:48:42;;;;;;;77.78;47.10;;;;;;;;;;761326;180;1021964;-67
2021/09/27 08:51:08;;;;;;;72.07;42.50;;;;;;;;;;774996;180;919235;-68
2021/09/27 08:53:34;;;;;;;82.77;46.70;;;;;;;;;;770445;180;619850;-68
2021/09/27 08:56:01;;;;;;;79.60;46.35;;;;;;;;;;755654;180;917423;-69
2021/09/27 08:58:31;;;;;;;87.93;46.50;;;;;;;;;;747489;186;919844;-67
2021/09/27 09:00:57;;;;;;;74.10;44.07;;;;;;;;;;769270;180;925120;-68
2021/09/27 09:03:23;;;;;;;67.90;44.15;;;;;;;;;;756209;183;917323;-67
2021/09/27 09:05:48;;;;;;;78.70;45.10;;;;;;;;;;767366;180;919189;-67
2021/09/27 09:08:16;;;;;;;76.03;41.90;;;;;;;;;;767910;180;918839;-67
2021/09/27 09:10:43;;;;;;;74.20;41.63;;;;;;;;;;749461;183;927866;-68
2021/09/27 09:13:08;;;;;;;69.40;42.13;;;;;;;;;;773963;180;642524;-67
2021/09/27 09:15:36;;;;;;;69.80;43.50;;;;;;;;;;763309;183;943479;-67
2021/09/27 09:18:01;;;;;;;71.47;42.93;;;;;;;;;;762925;180;623498;-67
2021/09/27 09:20:38;;;;;;;68.93;43.20;;;;;;;;;;761925;184;918973;-68
2021/09/27 09:23:05;;;;;;;72.23;42.73;;;;;;;;;;755560;183;918514;-68
2021/09/27 09:25:32;;;;;;;76.03;43.60;;;;;;;;;;763988;180;919455;-67
2021/09/27 09:27:58;;;;;;;63.17;42.03;;;;;;;;;;756006;183;918915;-67
2021/09/27 09:30:24;;;;;;;65.43;42.70;;;;;;;;;;750780;180;919681;-67
2021/09/27 09:32:50;;;;;;;68.63;43.47;;;;;;;;;;764705;181;921105;-68
2021/09/27 09:35:18;;;;;;;66.37;45.50;;;;;;;;;;755153;182;1433722;-67
2021/09/27 09:37:45;;;;;;;76.13;43.17;;;;;;;;;;765919;180;919180;-68
2021/09/27 09:40:15;;;;;;;67.03;40.47;;;;;;;;;;763529;180;918921;-67
2021/09/27 09:42:40;;;;;;;79.93;44.20;;;;;;;;;;770313;180;919376;-68
2021/09/27 09:45:10;;;;;;;76.00;42.17;;;;;;;;;;767055;180;918827;-68
2021/09/27 09:47:36;;;;;;;66.10;41.37;;;;;;;;;;764256;180;918928;-68
2021/09/27 09:50:06;;;;;;;66.97;42.53;;;;;;;;;;768722;180;919173;-67
2021/09/27 09:52:34;;;;;;;65.20;41.03;;;;;;;;;;761802;180;918601;-67
2021/09/27 09:55:00;;;;;;;67.17;40.60;;;;;;;;;;760247;180;919171;-67
2021/09/27 09:57:29;;;;;;;67.55;41.78;;;;;;;;;;746974;186;919189;-67
2021/09/27 10:00:10;;;;;;;65.17;41.33;;;;;;;;;;753376;183;918640;-67
2021/09/27 10:02:37;;;;;;;62.00;37.13;;;;;;;;;;759068;182;918479;-68
2021/09/27 10:05:07;;;;;;;52.37;36.00;;;;;;;;;;768939;183;917331;-68
2021/09/27 10:07:30;;;;;;;58.10;33.43;;;;;;;;;;742382;186;920469;-68
2021/09/27 10:09:56;;;;;;;49.90;34.00;;;;;;;;;;757151;183;919027;-66
2021/09/27 10:12:28;;;;;;;48.70;33.38;;;;;;;;;;759724;180;917806;-67
2021/09/27 10:14:54;;;;;;;52.53;33.83;;;;;;;;;;745291;187;919490;-67
2021/09/27 10:17:28;;;;;;;50.80;33.80;;;;;;;;;;753730;183;919107;-68
2021/09/27 10:19:57;;;;;;;45.13;30.40;;;;;;;;;;757966;183;918752;-68
2021/09/27 10:22:24;;;;;;;54.13;30.63;;;;;;;;;;752884;184;919682;-68
2021/09/27 10:24:49;;;;;;;45.87;33.00;;;;;;;;;;756513;184;919237;-68
2021/09/27 10:27:16;;;;;;;48.40;31.40;;;;;;;;;;752948;183;921581;-69
2021/09/27 10:29:42;;;;;;;44.53;30.43;;;;;;;;;;754829;184;918421;-68
2021/09/27 10:32:10;;;;;;;42.30;29.20;;;;;;;;;;760702;184;919594;-68
2021/09/27 10:34:36;;;;;;;41.33;28.90;;;;;;;;;;750001;184;918329;-70
2021/09/27 10:37:12;;;;;;;47.40;29.63;;;;;;;;;;759598;184;919163;-68
2021/09/27 10:39:38;;;;;;;46.47;29.70;;;;;;;;;;751462;184;919019;-67
2021/09/27 10:42:05;;;;;;;37.90;26.53;;;;;;;;;;752461;184;925452;-68
2021/09/27 10:44:32;;;;;;;43.13;29.60;;;;;;;;;;750915;184;922542;-68
2021/09/27 10:47:02;;;;;;;40.87;29.60;;;;;;;;;;752784;184;916061;-69
2021/09/27 10:49:25;;;;;;;41.63;27.70;;;;;;;;;;752157;184;916097;-69
2021/09/27 10:51:51;;;;;;;45.43;27.50;;;;;;;;;;760029;184;913915;-70
2021/09/27 10:54:25;;;;;;;48.87;28.50;;;;;;;;;;749727;184;918499;-69
2021/09/27 10:56:50;;;;;;;36.73;25.43;;;;;;;;;;754605;184;918690;-68
2021/09/27 10:59:22;;;;;;;39.50;26.90;;;;;;;;;;756288;184;919238;-68
2021/09/27 11:01:50;;;;;;;40.07;27.40;;;;;;;;;;750486;186;919088;-68
2021/09/27 11:04:16;;;;;;;48.20;27.30;;;;;;;;;;770451;180;916914;-68
2021/09/27 11:06:42;;;;;;;44.50;29.10;;;;;;;;;;757355;183;918872;-68
2021/09/27 11:09:13;;;;;;;51.90;30.80;;;;;;;;;;757719;183;918727;-68
2021/09/27 11:11:40;;;;;;;46.30;28.53;;;;;;;;;;752469;187;918580;-68
2021/09/27 11:14:16;;;;;;;45.03;29.50;;;;;;;;;;744505;185;919055;-68
2021/09/27 11:16:41;;;;;;;43.40;29.10;;;;;;;;;;763565;183;919326;-68
2021/09/27 11:19:13;;;;;;;43.53;27.20;;;;;;;;;;769130;180;919438;-69
2021/09/27 11:21:40;;;;;;;40.10;27.20;;;;;;;;;;769724;180;919419;-69
2021/09/27 11:24:23;;;;;;;42.53;26.80;;;;;;;;;;763801;183;919262;-70
2021/09/27 11:27:06;;;;;;;43.50;28.40;;;;;;;;;;760263;183;935658;-68
2021/09/27 11:29:32;;;;;;;41.07;27.90;;;;;;;;;;746169;184;918462;-68
2021/09/27 11:32:03;;;;;;;42.10;25.90;;;;;;;;;;765279;180;937972;-72
2021/09/27 11:34:30;;;;;;;47.87;28.10;;;;;;;;;;768887;180;930467;-69
2021/09/27 11:37:16;;;;;;;38.90;26.23;;;;;;;;;;754086;184;921370;-69
2021/09/27 11:39:45;;;;;;;41.13;25.70;;;;;;;;;;742645;186;918376;-66
2021/09/27 11:42:12;;;;;;;39.73;26.93;;;;;;;;;;747859;186;917969;-66
2021/09/27 11:44:39;;;;;;;38.93;25.70;;;;;;;;;;748409;184;919418;-68
2021/09/27 11:47:05;;;;;;;39.50;24.97;;;;;;;;;;744806;186;1021264;-68
2021/09/27 11:49:33;;;;;;;36.00;22.90;;;;;;;;;;745584;186;918525;-68
2021/09/27 11:52:03;;;;;;;36.33;24.00;;;;;;;;;;747237;187;919531;-67
2021/09/27 11:54:29;;;;;;;35.30;25.37;;;;;;;;;;753581;183;1020609;-69
2021/09/27 11:56:55;;;;;;;37.53;23.53;;;;;;;;;;749182;187;919423;-67
2021/09/27 11:59:27;;;;;;;44.23;27.70;;;;;;;;;;744325;186;919152;-68
2021/09/27 12:01:52;;;;;;;37.37;25.17;;;;;;;;;;766140;180;919227;-68
2021/09/27 12:04:22;;;;;;;42.47;27.13;;;;;;;;;;767330;180;919875;-67
2021/09/27 12:06:48;;;;;;;42.93;27.27;;;;;;;;;;770278;180;918917;-66
2021/09/27 12:09:17;;;;;;;45.87;29.30;;;;;;;;;;759323;183;921984;-67
2021/09/27 12:11:45;;;;;;;42.60;25.87;;;;;;;;;;750763;184;937202;-66
2021/09/27 12:14:11;;;;;;;46.43;27.60;;;;;;;;;;741607;187;917650;-67
2021/09/27 12:16:37;;;;;;;40.17;27.17;;;;;;;;;;763379;184;918271;-67
2021/09/27 12:19:09;;;;;;;38.20;26.30;;;;;;;;;;749545;182;919809;-66
2021/09/27 12:21:38;;;;;;;40.97;27.50;;;;;;;;;;754669;183;918549;-68
2021/09/27 12:24:08;;;;;;;45.10;27.27;;;;;;;;;;754880;183;1022518;-67
2021/09/27 12:26:36;;;;;;;42.90;27.57;;;;;;;;;;767547;181;919087;-67
2021/09/27 12:29:02;;;;;;;44.23;27.90;;;;;;;;;;760857;183;919682;-68
2021/09/27 12:31:28;;;;;;;43.13;26.90;;;;;;;;;;775012;180;745774;-68
2021/09/27 12:33:53;;;;;;;46.37;25.67;;;;;;;;;;771166;180;918891;-68
2021/09/27 12:36:19;;;;;;;37.63;27.07;;;;;;;;;;762257;183;919400;-68
2021/09/27 12:38:46;;;;;;;36.10;24.83;;;;;;;;;;746792;184;921135;-68
2021/09/27 12:41:12;;;;;;;49.67;29.27;;;;;;;;;;758101;183;920036;-70
2021/09/27 12:43:38;;;;;;;40.70;26.57;;;;;;;;;;763236;183;918883;-68
2021/09/27 12:46:19;;;;;;;37.23;27.30;;;;;;;;;;744634;187;922059;-68
2021/09/27 12:48:46;;;;;;;36.63;24.67;;;;;;;;;;755788;184;631157;-69
2021/09/27 12:51:11;;;;;;;39.00;25.57;;;;;;;;;;754267;184;628987;-70
2021/09/27 12:53:38;;;;;;;43.63;25.70;;;;;;;;;;761904;183;627596;-70
2021/09/27 12:56:05;;;;;;;37.53;24.27;;;;;;;;;;757542;184;628462;-68
2021/09/27 12:58:29;;;;;;;32.00;21.73;;;;;;;;;;759584;183;625377;-69
2021/09/27 13:00:55;;;;;;;30.80;23.40;;;;;;;;;;767306;180;919458;-68
2021/09/27 13:03:22;;;;;;;32.53;23.10;;;;;;;;;;749151;183;918726;-69
2021/09/27 13:05:52;;;;;;;36.63;21.77;;;;;;;;;;754874;183;923875;-68
2021/09/27 13:08:19;;;;;;;38.10;22.87;;;;;;;;;;762210;180;1013866;-68
2021/09/27 13:10:45;;;;;;;38.27;24.00;;;;;;;;;;768852;180;922294;-68
2021/09/27 13:13:13;;;;;;;32.33;21.43;;;;;;;;;;758535;183;921437;-69
2021/09/27 13:15:42;;;;;;;32.87;21.03;;;;;;;;;;763515;180;920146;-70
2021/09/27 13:18:06;;;;;;;35.03;21.98;;;;;;;;;;761823;180;1019086;-68
2021/09/27 13:20:38;;;;;;;38.77;23.90;;;;;;;;;;763875;180;922302;-68
2021/09/27 13:23:03;;;;;;;34.50;23.57;;;;;;;;;;755355;183;921785;-69
2021/09/27 13:25:29;;;;;;;33.83;23.37;;;;;;;;;;756882;181;918858;-68
2021/09/27 13:27:55;;;;;;;37.00;23.27;;;;;;;;;;760656;183;919217;-69
2021/09/27 13:30:22;;;;;;;35.90;23.80;;;;;;;;;;756528;183;911646;-70
2021/09/27 13:32:50;;;;;;;36.40;23.80;;;;;;;;;;755837;180;912244;-69
2021/09/27 13:35:18;;;;;;;42.23;26.30;;;;;;;;;;747731;183;922030;-70
2021/09/27 13:38:01;;;;;;;42.40;27.93;;;;;;;;;;757477;183;914154;-71
2021/09/27 13:40:28;;;;;;;39.10;27.37;;;;;;;;;;764704;183;916425;-70
2021/09/27 13:42:59;;;;;;;40.90;27.03;;;;;;;;;;762097;180;913409;-71
2021/09/27 13:45:28;;;;;;;40.80;26.07;;;;;;;;;;753902;182;924649;-69
2021/09/27 13:47:54;;;;;;;41.43;28.30;;;;;;;;;;754415;183;920726;-69
2021/09/27 13:50:20;;;;;;;44.33;29.13;;;;;;;;;;773746;180;920345;-70
2021/09/27 13:52:46;;;;;;;42.60;31.07;;;;;;;;;;768639;180;907450;-70
2021/09/27 13:55:12;;;;;;;45.80;30.87;;;;;;;;;;771861;180;910268;-68
2021/09/27 13:57:37;;;;;;;50.50;31.37;;;;;;;;;;757548;184;911009;-68
2021/09/27 14:00:04;;;;;;;49.33;30.80;;;;;;;;;;752525;183;939598;-70
2021/09/27 14:02:30;;;;;;;55.00;33.70;;;;;;;;;;765214;180;911863;-71
2021/09/27 14:04:56;;;;;;;50.40;34.40;;;;;;;;;;765541;183;914306;-69